sensor_id;sensor_type;location;lat;lon;timestamp;temperature;humidity
51914;DHT22;37940;53.002;6.930;2023-02-14T00:01:44;0.90;99.90
51914;DHT22;37940;53.002;6.930;2023-02-14T00:04:11;0.90;99.90
51914;DHT22;37940;53.002;6.930;2023-02-14T00:06:37;0.80;99.90
51914;DHT22;37940;53.002;6.930;2023-02-14T00:09:04;0.80;99.90
51914;DHT22;37940;53.002;6.930;2023-02-14T00:11:31;0.70;99.90
51914;DHT22;37940;53.002;6.930;2023-02-14T00:13:57;1.10;99.90
51914;DHT22;37940;53.002;6.930;2023-02-14T00:16:42;1.80;99.90
51914;DHT22;37940;53.002;6.930;2023-02-14T00:19:09;0.70;99.90
51914;DHT22;37940;53.002;6.930;2023-02-14T00:21:37;1.20;99.90
51914;DHT22;37940;53.002;6.930;2023-02-14T00:24:05;0.60;99.90
51914;DHT22;37940;53.002;6.930;2023-02-14T00:26:31;0.60;99.90
51914;DHT22;37940;53.002;6.930;2023-02-14T00:28:57;0.80;99.90
51914;DHT22;37940;53.002;6.930;2023-02-14T00:31:23;0.60;99.90
51914;DHT22;37940;53.002;6.930;2023-02-14T00:33:49;0.60;99.90
51914;DHT22;37940;53.002;6.930;2023-02-14T00:36:15;0.70;99.90
51914;DHT22;37940;53.002;6.930;2023-02-14T00:38:42;0.70;99.90
51914;DHT22;37940;53.002;6.930;2023-02-14T00:41:08;0.80;99.90
51914;DHT22;37940;53.002;6.930;2023-02-14T00:43:33;0.80;99.90
51914;DHT22;37940;53.002;6.930;2023-02-14T00:45:59;0.90;99.90
51914;DHT22;37940;53.002;6.930;2023-02-14T00:48:25;0.90;99.90
51914;DHT22;37940;53.002;6.930;2023-02-14T00:50:51;1.40;99.90
51914;DHT22;37940;53.002;6.930;2023-02-14T00:53:17;1.00;99.90
51914;DHT22;37940;53.002;6.930;2023-02-14T00:55:44;1.00;99.90
51914;DHT22;37940;53.002;6.930;2023-02-14T00:58:11;1.30;99.90
51914;DHT22;37940;53.002;6.930;2023-02-14T01:00:37;1.20;99.90
51914;DHT22;37940;53.002;6.930;2023-02-14T01:03:03;1.10;99.90
51914;DHT22;37940;53.002;6.930;2023-02-14T01:05:29;1.60;99.90
51914;DHT22;37940;53.002;6.930;2023-02-14T01:07:54;1.10;99.90
51914;DHT22;37940;53.002;6.930;2023-02-14T01:10:20;1.60;99.90
51914;DHT22;37940;53.002;6.930;2023-02-14T01:12:46;1.10;99.90
51914;DHT22;37940;53.002;6.930;2023-02-14T01:15:12;1.10;99.90
51914;DHT22;37940;53.002;6.930;2023-02-14T01:17:37;1.00;99.90
51914;DHT22;37940;53.002;6.930;2023-02-14T01:20:04;1.10;99.90
51914;DHT22;37940;53.002;6.930;2023-02-14T01:22:35;1.10;99.90
51914;DHT22;37940;53.002;6.930;2023-02-14T01:25:01;1.10;99.90
51914;DHT22;37940;53.002;6.930;2023-02-14T01:27:26;1.20;99.90
51914;DHT22;37940;53.002;6.930;2023-02-14T01:29:53;1.20;99.90
51914;DHT22;37940;53.002;6.930;2023-02-14T01:32:18;1.30;99.90
51914;DHT22;37940;53.002;6.930;2023-02-14T01:34:44;1.30;99.90
51914;DHT22;37940;53.002;6.930;2023-02-14T01:37:10;1.30;99.90
51914;DHT22;37940;53.002;6.930;2023-02-14T01:39:35;1.30;99.90
51914;DHT22;37940;53.002;6.930;2023-02-14T01:42:01;1.30;99.90
51914;DHT22;37940;53.002;6.930;2023-02-14T01:46:53;1.30;99.90
51914;DHT22;37940;53.002;6.930;2023-02-14T01:49:27;1.30;99.90
51914;DHT22;37940;53.002;6.930;2023-02-14T01:52:17;1.30;99.90
51914;DHT22;37940;53.002;6.930;2023-02-14T01:54:56;1.40;99.90
51914;DHT22;37940;53.002;6.930;2023-02-14T01:57:27;1.40;99.90
51914;DHT22;37940;53.002;6.930;2023-02-14T01:59:56;1.40;99.90
51914;DHT22;37940;53.002;6.930;2023-02-14T02:02:43;1.50;99.90
51914;DHT22;37940;53.002;6.930;2023-02-14T02:05:10;1.50;99.90
51914;DHT22;37940;53.002;6.930;2023-02-14T02:07:37;2.30;99.90
51914;DHT22;37940;53.002;6.930;2023-02-14T02:10:05;1.50;99.90
51914;DHT22;37940;53.002;6.930;2023-02-14T02:12:32;1.50;99.90
51914;DHT22;37940;53.002;6.930;2023-02-14T02:15:02;1.50;99.90
51914;DHT22;37940;53.002;6.930;2023-02-14T02:26:01;1.60;99.90
51914;DHT22;37940;53.002;6.930;2023-02-14T02:37:52;1.60;99.90
51914;DHT22;37940;53.002;6.930;2023-02-14T02:49:20;1.60;99.90
51914;DHT22;37940;53.002;6.930;2023-02-14T02:52:13;1.60;99.90
51914;DHT22;37940;53.002;6.930;2023-02-14T02:55:10;1.60;99.90
51914;DHT22;37940;53.002;6.930;2023-02-14T02:57:39;1.60;99.90
51914;DHT22;37940;53.002;6.930;2023-02-14T03:00:07;1.60;99.90
51914;DHT22;37940;53.002;6.930;2023-02-14T03:02:38;1.50;99.90
51914;DHT22;37940;53.002;6.930;2023-02-14T03:05:27;1.50;99.90
51914;DHT22;37940;53.002;6.930;2023-02-14T03:07:53;1.60;99.90
51914;DHT22;37940;53.002;6.930;2023-02-14T03:10:31;1.60;99.90
51914;DHT22;37940;53.002;6.930;2023-02-14T03:13:33;1.50;99.90
51914;DHT22;37940;53.002;6.930;2023-02-14T03:16:40;1.50;99.90
51914;DHT22;37940;53.002;6.930;2023-02-14T03:24:50;1.80;99.90
51914;DHT22;37940;53.002;6.930;2023-02-14T03:28:00;1.50;99.90
51914;DHT22;37940;53.002;6.930;2023-02-14T03:30:37;1.50;99.90
51914;DHT22;37940;53.002;6.930;2023-02-14T03:33:32;1.60;99.90
51914;DHT22;37940;53.002;6.930;2023-02-14T03:36:08;1.50;99.90
51914;DHT22;37940;53.002;6.930;2023-02-14T03:41:24;1.40;99.90
51914;DHT22;37940;53.002;6.930;2023-02-14T03:43:54;1.40;99.90
51914;DHT22;37940;53.002;6.930;2023-02-14T03:49:02;1.30;99.90
51914;DHT22;37940;53.002;6.930;2023-02-14T03:51:30;1.30;99.90
51914;DHT22;37940;53.002;6.930;2023-02-14T03:54:00;1.20;99.90
51914;DHT22;37940;53.002;6.930;2023-02-14T03:56:47;1.30;99.90
51914;DHT22;37940;53.002;6.930;2023-02-14T03:59:16;1.30;99.90
51914;DHT22;37940;53.002;6.930;2023-02-14T04:04:37;1.20;99.90
51914;DHT22;37940;53.002;6.930;2023-02-14T04:07:16;1.20;99.90
51914;DHT22;37940;53.002;6.930;2023-02-14T04:09:43;1.10;99.90
51914;DHT22;37940;53.002;6.930;2023-02-14T04:12:09;1.10;99.90
51914;DHT22;37940;53.002;6.930;2023-02-14T04:14:36;1.00;99.90
51914;DHT22;37940;53.002;6.930;2023-02-14T04:17:02;2.20;99.90
51914;DHT22;37940;53.002;6.930;2023-02-14T04:19:46;0.90;99.90
51914;DHT22;37940;53.002;6.930;2023-02-14T04:22:12;0.90;99.90
51914;DHT22;37940;53.002;6.930;2023-02-14T04:24:38;0.80;99.90
51914;DHT22;37940;53.002;6.930;2023-02-14T04:27:04;0.80;99.90
51914;DHT22;37940;53.002;6.930;2023-02-14T04:29:47;0.90;99.90
51914;DHT22;37940;53.002;6.930;2023-02-14T04:32:17;0.70;99.90
51914;DHT22;37940;53.002;6.930;2023-02-14T04:34:44;0.70;99.90
51914;DHT22;37940;53.002;6.930;2023-02-14T04:37:10;0.70;99.90
51914;DHT22;37940;53.002;6.930;2023-02-14T04:39:37;0.60;99.90
51914;DHT22;37940;53.002;6.930;2023-02-14T04:42:03;0.60;99.90
51914;DHT22;37940;53.002;6.930;2023-02-14T04:44:30;0.60;99.90
51914;DHT22;37940;53.002;6.930;2023-02-14T04:46:58;0.60;99.90
51914;DHT22;37940;53.002;6.930;2023-02-14T04:49:24;0.60;99.90
51914;DHT22;37940;53.002;6.930;2023-02-14T04:51:50;0.60;99.90
51914;DHT22;37940;53.002;6.930;2023-02-14T04:54:16;0.60;99.90
51914;DHT22;37940;53.002;6.930;2023-02-14T04:56:42;0.60;99.90
51914;DHT22;37940;53.002;6.930;2023-02-14T04:59:08;0.70;99.90
51914;DHT22;37940;53.002;6.930;2023-02-14T05:01:33;0.70;99.90
51914;DHT22;37940;53.002;6.930;2023-02-14T05:03:59;0.70;99.90
51914;DHT22;37940;53.002;6.930;2023-02-14T05:06:25;0.90;99.90
51914;DHT22;37940;53.002;6.930;2023-02-14T05:08:51;0.70;99.90
51914;DHT22;37940;53.002;6.930;2023-02-14T05:11:17;0.80;99.90
51914;DHT22;37940;53.002;6.930;2023-02-14T05:13:42;0.70;99.90
51914;DHT22;37940;53.002;6.930;2023-02-14T05:16:08;0.80;99.90
51914;DHT22;37940;53.002;6.930;2023-02-14T05:18:34;0.80;99.90
51914;DHT22;37940;53.002;6.930;2023-02-14T05:21:00;0.80;99.90
51914;DHT22;37940;53.002;6.930;2023-02-14T05:23:25;0.80;99.90
51914;DHT22;37940;53.002;6.930;2023-02-14T05:25:51;0.80;99.90
51914;DHT22;37940;53.002;6.930;2023-02-14T05:28:18;1.00;99.90
51914;DHT22;37940;53.002;6.930;2023-02-14T05:30:45;0.80;99.90
51914;DHT22;37940;53.002;6.930;2023-02-14T05:33:11;0.80;99.90
51914;DHT22;37940;53.002;6.930;2023-02-14T05:35:36;1.20;99.90
51914;DHT22;37940;53.002;6.930;2023-02-14T05:38:02;0.80;99.90
51914;DHT22;37940;53.002;6.930;2023-02-14T05:40:28;0.80;99.90
51914;DHT22;37940;53.002;6.930;2023-02-14T05:42:54;0.80;99.90
51914;DHT22;37940;53.002;6.930;2023-02-14T05:45:21;0.70;99.90
51914;DHT22;37940;53.002;6.930;2023-02-14T05:47:48;1.00;99.90
51914;DHT22;37940;53.002;6.930;2023-02-14T05:50:14;0.70;99.90
51914;DHT22;37940;53.002;6.930;2023-02-14T05:52:40;0.80;99.90
51914;DHT22;37940;53.002;6.930;2023-02-14T05:55:06;1.40;99.90
51914;DHT22;37940;53.002;6.930;2023-02-14T05:57:33;0.80;99.90
51914;DHT22;37940;53.002;6.930;2023-02-14T05:59:59;0.80;99.90
51914;DHT22;37940;53.002;6.930;2023-02-14T06:02:25;0.90;99.90
51914;DHT22;37940;53.002;6.930;2023-02-14T06:04:51;1.90;99.90
51914;DHT22;37940;53.002;6.930;2023-02-14T06:07:17;1.90;99.90
51914;DHT22;37940;53.002;6.930;2023-02-14T06:09:43;1.00;99.90
51914;DHT22;37940;53.002;6.930;2023-02-14T06:12:09;1.00;99.90
51914;DHT22;37940;53.002;6.930;2023-02-14T06:14:35;1.00;99.90
51914;DHT22;37940;53.002;6.930;2023-02-14T06:17:01;1.60;99.90
51914;DHT22;37940;53.002;6.930;2023-02-14T06:19:26;1.10;99.90
51914;DHT22;37940;53.002;6.930;2023-02-14T06:21:52;0.90;99.90
51914;DHT22;37940;53.002;6.930;2023-02-14T06:24:18;1.40;99.90
51914;DHT22;37940;53.002;6.930;2023-02-14T06:26:44;0.90;99.90
51914;DHT22;37940;53.002;6.930;2023-02-14T06:29:09;0.90;99.90
51914;DHT22;37940;53.002;6.930;2023-02-14T06:31:35;0.80;99.90
51914;DHT22;37940;53.002;6.930;2023-02-14T06:34:02;0.80;99.90
51914;DHT22;37940;53.002;6.930;2023-02-14T06:36:28;0.80;99.90
51914;DHT22;37940;53.002;6.930;2023-02-14T06:38:53;0.70;99.90
51914;DHT22;37940;53.002;6.930;2023-02-14T06:41:19;0.70;99.90
51914;DHT22;37940;53.002;6.930;2023-02-14T06:43:46;1.50;99.90
51914;DHT22;37940;53.002;6.930;2023-02-14T06:46:16;0.60;99.90
51914;DHT22;37940;53.002;6.930;2023-02-14T06:48:42;0.70;99.90
51914;DHT22;37940;53.002;6.930;2023-02-14T06:51:08;0.60;99.90
51914;DHT22;37940;53.002;6.930;2023-02-14T06:53:34;0.60;99.90
51914;DHT22;37940;53.002;6.930;2023-02-14T06:56:00;0.50;99.90
51914;DHT22;37940;53.002;6.930;2023-02-14T06:58:26;0.50;99.90
51914;DHT22;37940;53.002;6.930;2023-02-14T07:00:54;0.50;99.90
51914;DHT22;37940;53.002;6.930;2023-02-14T07:03:20;0.60;99.90
51914;DHT22;37940;53.002;6.930;2023-02-14T07:05:46;0.60;99.90
51914;DHT22;37940;53.002;6.930;2023-02-14T07:08:12;0.60;99.90
51914;DHT22;37940;53.002;6.930;2023-02-14T07:10:38;1.70;99.90
51914;DHT22;37940;53.002;6.930;2023-02-14T07:13:04;0.60;99.90
51914;DHT22;37940;53.002;6.930;2023-02-14T07:15:30;0.70;99.90
51914;DHT22;37940;53.002;6.930;2023-02-14T07:17:56;1.80;99.90
51914;DHT22;37940;53.002;6.930;2023-02-14T07:20:24;1.50;99.90
51914;DHT22;37940;53.002;6.930;2023-02-14T07:22:50;0.80;99.90
51914;DHT22;37940;53.002;6.930;2023-02-14T07:25:16;0.90;99.90
51914;DHT22;37940;53.002;6.930;2023-02-14T07:27:42;0.80;99.90
51914;DHT22;37940;53.002;6.930;2023-02-14T07:30:09;1.50;99.90
51914;DHT22;37940;53.002;6.930;2023-02-14T07:32:39;0.80;99.90
51914;DHT22;37940;53.002;6.930;2023-02-14T07:35:06;1.10;99.90
51914;DHT22;37940;53.002;6.930;2023-02-14T07:37:32;0.80;99.90
51914;DHT22;37940;53.002;6.930;2023-02-14T07:39:58;1.10;99.90
51914;DHT22;37940;53.002;6.930;2023-02-14T07:42:24;0.80;99.90
51914;DHT22;37940;53.002;6.930;2023-02-14T07:44:50;0.90;99.90
51914;DHT22;37940;53.002;6.930;2023-02-14T07:47:16;0.90;99.90
51914;DHT22;37940;53.002;6.930;2023-02-14T07:49:42;1.20;99.90
51914;DHT22;37940;53.002;6.930;2023-02-14T07:52:08;0.90;99.90
51914;DHT22;37940;53.002;6.930;2023-02-14T07:54:34;2.00;99.90
51914;DHT22;37940;53.002;6.930;2023-02-14T07:57:00;1.00;99.90
51914;DHT22;37940;53.002;6.930;2023-02-14T07:59:29;1.00;99.90
51914;DHT22;37940;53.002;6.930;2023-02-14T08:01:55;1.00;99.90
51914;DHT22;37940;53.002;6.930;2023-02-14T08:04:21;1.10;99.90
51914;DHT22;37940;53.002;6.930;2023-02-14T08:06:51;1.20;99.90
51914;DHT22;37940;53.002;6.930;2023-02-14T08:09:18;1.60;99.90
51914;DHT22;37940;53.002;6.930;2023-02-14T08:11:54;1.30;99.90
51914;DHT22;37940;53.002;6.930;2023-02-14T08:14:39;1.30;99.90
51914;DHT22;37940;53.002;6.930;2023-02-14T08:17:05;1.40;99.90
51914;DHT22;37940;53.002;6.930;2023-02-14T08:19:32;1.40;99.90
51914;DHT22;37940;53.002;6.930;2023-02-14T08:21:58;1.50;99.90
51914;DHT22;37940;53.002;6.930;2023-02-14T08:24:24;1.50;99.90
51914;DHT22;37940;53.002;6.930;2023-02-14T08:26:50;1.60;99.90
51914;DHT22;37940;53.002;6.930;2023-02-14T08:29:17;1.70;99.90
51914;DHT22;37940;53.002;6.930;2023-02-14T08:31:42;1.70;99.90
51914;DHT22;37940;53.002;6.930;2023-02-14T08:34:08;1.80;99.90
51914;DHT22;37940;53.002;6.930;2023-02-14T08:36:34;2.40;99.90
51914;DHT22;37940;53.002;6.930;2023-02-14T08:39:00;1.90;99.90
51914;DHT22;37940;53.002;6.930;2023-02-14T08:41:27;1.90;99.90
51914;DHT22;37940;53.002;6.930;2023-02-14T08:43:53;2.20;99.90
51914;DHT22;37940;53.002;6.930;2023-02-14T08:46:18;2.00;99.90
51914;DHT22;37940;53.002;6.930;2023-02-14T08:48:44;2.10;99.90
51914;DHT22;37940;53.002;6.930;2023-02-14T08:51:12;2.10;99.90
51914;DHT22;37940;53.002;6.930;2023-02-14T08:53:39;2.20;99.90
51914;DHT22;37940;53.002;6.930;2023-02-14T08:56:07;1.40;99.90
51914;DHT22;37940;53.002;6.930;2023-02-14T08:58:33;3.20;99.90
51914;DHT22;37940;53.002;6.930;2023-02-14T09:01:01;2.40;99.90
51914;DHT22;37940;53.002;6.930;2023-02-14T09:03:27;2.80;99.90
51914;DHT22;37940;53.002;6.930;2023-02-14T09:05:53;2.50;99.90
51914;DHT22;37940;53.002;6.930;2023-02-14T09:08:19;2.60;99.90
51914;DHT22;37940;53.002;6.930;2023-02-14T09:10:44;2.70;99.90
51914;DHT22;37940;53.002;6.930;2023-02-14T09:13:10;2.80;99.90
51914;DHT22;37940;53.002;6.930;2023-02-14T09:15:36;2.90;99.90
51914;DHT22;37940;53.002;6.930;2023-02-14T09:18:02;3.00;99.90
51914;DHT22;37940;53.002;6.930;2023-02-14T09:20:27;3.00;99.90
51914;DHT22;37940;53.002;6.930;2023-02-14T09:22:56;3.50;99.90
51914;DHT22;37940;53.002;6.930;2023-02-14T09:25:22;3.30;99.90
51914;DHT22;37940;53.002;6.930;2023-02-14T09:27:48;3.40;99.90
51914;DHT22;37940;53.002;6.930;2023-02-14T09:30:14;3.50;99.90
51914;DHT22;37940;53.002;6.930;2023-02-14T09:32:40;3.70;99.90
51914;DHT22;37940;53.002;6.930;2023-02-14T09:35:06;4.70;99.90
51914;DHT22;37940;53.002;6.930;2023-02-14T09:37:31;4.00;99.90
51914;DHT22;37940;53.002;6.930;2023-02-14T09:40:17;4.20;99.90
51914;DHT22;37940;53.002;6.930;2023-02-14T09:45:24;4.50;99.90
51914;DHT22;37940;53.002;6.930;2023-02-14T09:50:56;4.80;99.90
51914;DHT22;37940;53.002;6.930;2023-02-14T09:53:33;5.00;99.90
51914;DHT22;37940;53.002;6.930;2023-02-14T10:01:44;5.40;99.90
51914;DHT22;37940;53.002;6.930;2023-02-14T10:12:32;6.10;99.90
51914;DHT22;37940;53.002;6.930;2023-02-14T10:15:04;6.20;99.90
51914;DHT22;37940;53.002;6.930;2023-02-14T10:17:43;6.30;99.90
51914;DHT22;37940;53.002;6.930;2023-02-14T10:20:19;6.50;99.90
51914;DHT22;37940;53.002;6.930;2023-02-14T10:22:56;6.60;99.90
51914;DHT22;37940;53.002;6.930;2023-02-14T10:25:28;6.70;99.90
51914;DHT22;37940;53.002;6.930;2023-02-14T10:27:57;6.80;99.90
51914;DHT22;37940;53.002;6.930;2023-02-14T10:30:26;6.90;99.90
51914;DHT22;37940;53.002;6.930;2023-02-14T10:33:10;7.00;99.90
51914;DHT22;37940;53.002;6.930;2023-02-14T10:35:48;7.10;99.90
51914;DHT22;37940;53.002;6.930;2023-02-14T10:38:33;7.20;99.90
51914;DHT22;37940;53.002;6.930;2023-02-14T10:41:25;7.30;99.90
51914;DHT22;37940;53.002;6.930;2023-02-14T10:43:58;7.40;99.90
51914;DHT22;37940;53.002;6.930;2023-02-14T10:46:35;7.50;99.90
51914;DHT22;37940;53.002;6.930;2023-02-14T10:55:18;7.90;99.90
51914;DHT22;37940;53.002;6.930;2023-02-14T10:57:49;8.00;99.90
51914;DHT22;37940;53.002;6.930;2023-02-14T11:00:28;8.10;99.90
51914;DHT22;37940;53.002;6.930;2023-02-14T11:03:00;8.10;99.90
51914;DHT22;37940;53.002;6.930;2023-02-14T11:05:40;8.20;99.90
51914;DHT22;37940;53.002;6.930;2023-02-14T11:08:35;8.20;99.90
51914;DHT22;37940;53.002;6.930;2023-02-14T11:13:54;8.30;99.90
51914;DHT22;37940;53.002;6.930;2023-02-14T11:16:35;8.30;99.90
51914;DHT22;37940;53.002;6.930;2023-02-14T11:21:41;8.50;99.90
51914;DHT22;37940;53.002;6.930;2023-02-14T11:24:34;8.50;99.90
51914;DHT22;37940;53.002;6.930;2023-02-14T11:29:47;8.60;99.90
51914;DHT22;37940;53.002;6.930;2023-02-14T11:32:22;8.60;99.90
51914;DHT22;37940;53.002;6.930;2023-02-14T11:35:06;8.60;99.90
51914;DHT22;37940;53.002;6.930;2023-02-14T11:37:38;8.60;99.90
51914;DHT22;37940;53.002;6.930;2023-02-14T11:40:22;8.60;99.90
51914;DHT22;37940;53.002;6.930;2023-02-14T11:42:50;8.60;99.90
51914;DHT22;37940;53.002;6.930;2023-02-14T11:45:28;8.70;99.90
51914;DHT22;37940;53.002;6.930;2023-02-14T11:51:04;8.70;99.90
51914;DHT22;37940;53.002;6.930;2023-02-14T11:53:49;8.70;99.90
51914;DHT22;37940;53.002;6.930;2023-02-14T11:56:19;8.70;99.90
51914;DHT22;37940;53.002;6.930;2023-02-14T11:59:03;8.80;99.90
51914;DHT22;37940;53.002;6.930;2023-02-14T12:01:32;8.80;99.90
51914;DHT22;37940;53.002;6.930;2023-02-14T12:04:03;8.90;99.90
51914;DHT22;37940;53.002;6.930;2023-02-14T12:06:33;8.90;99.90
51914;DHT22;37940;53.002;6.930;2023-02-14T12:09:25;9.00;99.90
51914;DHT22;37940;53.002;6.930;2023-02-14T12:12:02;9.10;99.90
51914;DHT22;37940;53.002;6.930;2023-02-14T12:14:33;9.10;99.90
51914;DHT22;37940;53.002;6.930;2023-02-14T12:20:01;9.30;99.90
51914;DHT22;37940;53.002;6.930;2023-02-14T12:22:45;9.30;99.90
51914;DHT22;37940;53.002;6.930;2023-02-14T12:25:19;9.40;99.90
51914;DHT22;37940;53.002;6.930;2023-02-14T12:28:00;9.50;99.90
51914;DHT22;37940;53.002;6.930;2023-02-14T12:30:32;9.60;99.90
51914;DHT22;37940;53.002;6.930;2023-02-14T12:32:59;9.60;99.90
51914;DHT22;37940;53.002;6.930;2023-02-14T12:43:47;10.00;99.90
51914;DHT22;37940;53.002;6.930;2023-02-14T12:59:41;10.40;99.90
51914;DHT22;37940;53.002;6.930;2023-02-14T13:05:18;10.50;99.90
51914;DHT22;37940;53.002;6.930;2023-02-14T13:10:39;10.50;99.90
51914;DHT22;37940;53.002;6.930;2023-02-14T13:16:25;10.60;99.90
51914;DHT22;37940;53.002;6.930;2023-02-14T13:19:00;10.70;99.90
51914;DHT22;37940;53.002;6.930;2023-02-14T13:21:30;10.70;99.90
51914;DHT22;37940;53.002;6.930;2023-02-14T13:24:21;10.70;99.90
51914;DHT22;37940;53.002;6.930;2023-02-14T13:26:52;10.70;99.90
51914;DHT22;37940;53.002;6.930;2023-02-14T13:29:22;10.70;99.90
51914;DHT22;37940;53.002;6.930;2023-02-14T13:31:51;10.80;99.90
51914;DHT22;37940;53.002;6.930;2023-02-14T13:34:31;10.80;99.90
51914;DHT22;37940;53.002;6.930;2023-02-14T13:36:59;10.90;99.90
51914;DHT22;37940;53.002;6.930;2023-02-14T13:39:42;10.90;99.90
51914;DHT22;37940;53.002;6.930;2023-02-14T13:42:11;10.90;99.90
51914;DHT22;37940;53.002;6.930;2023-02-14T13:47:04;10.90;99.90
51914;DHT22;37940;53.002;6.930;2023-02-14T13:49:32;10.90;99.90
51914;DHT22;37940;53.002;6.930;2023-02-14T13:52:03;10.90;99.90
51914;DHT22;37940;53.002;6.930;2023-02-14T13:57:03;10.80;99.90
51914;DHT22;37940;53.002;6.930;2023-02-14T14:02:47;10.80;99.90
51914;DHT22;37940;53.002;6.930;2023-02-14T14:19:05;10.80;99.90
51914;DHT22;37940;53.002;6.930;2023-02-14T14:21:40;10.70;99.90
51914;DHT22;37940;53.002;6.930;2023-02-14T14:24:22;10.70;99.90
51914;DHT22;37940;53.002;6.930;2023-02-14T14:31:57;10.60;99.90
51914;DHT22;37940;53.002;6.930;2023-02-14T14:34:25;10.60;99.90
51914;DHT22;37940;53.002;6.930;2023-02-14T14:37:17;10.60;99.90
51914;DHT22;37940;53.002;6.930;2023-02-14T14:39:58;10.60;99.90
51914;DHT22;37940;53.002;6.930;2023-02-14T14:42:32;10.50;99.90
51914;DHT22;37940;53.002;6.930;2023-02-14T14:45:02;10.50;99.90
51914;DHT22;37940;53.002;6.930;2023-02-14T14:47:40;10.50;99.90
51914;DHT22;37940;53.002;6.930;2023-02-14T14:50:15;10.50;99.90
51914;DHT22;37940;53.002;6.930;2023-02-14T14:52:45;10.50;99.90
51914;DHT22;37940;53.002;6.930;2023-02-14T14:55:24;10.40;99.90
51914;DHT22;37940;53.002;6.930;2023-02-14T14:57:56;10.40;99.90
51914;DHT22;37940;53.002;6.930;2023-02-14T15:00:31;10.40;99.90
51914;DHT22;37940;53.002;6.930;2023-02-14T15:02:59;10.40;99.90
51914;DHT22;37940;53.002;6.930;2023-02-14T15:05:35;10.40;99.90
51914;DHT22;37940;53.002;6.930;2023-02-14T15:10:59;10.30;99.90
51914;DHT22;37940;53.002;6.930;2023-02-14T15:13:43;10.30;99.90
51914;DHT22;37940;53.002;6.930;2023-02-14T15:16:26;10.20;99.90
51914;DHT22;37940;53.002;6.930;2023-02-14T15:18:58;10.20;99.90
51914;DHT22;37940;53.002;6.930;2023-02-14T15:21:25;10.20;99.90
51914;DHT22;37940;53.002;6.930;2023-02-14T15:23:52;10.20;99.90
51914;DHT22;37940;53.002;6.930;2023-02-14T15:26:25;10.10;99.90
51914;DHT22;37940;53.002;6.930;2023-02-14T15:29:01;10.10;99.90
51914;DHT22;37940;53.002;6.930;2023-02-14T15:31:32;10.00;99.90
51914;DHT22;37940;53.002;6.930;2023-02-14T15:33:59;9.90;99.90
51914;DHT22;37940;53.002;6.930;2023-02-14T15:36:27;9.90;99.90
51914;DHT22;37940;53.002;6.930;2023-02-14T15:38:55;9.90;99.90
51914;DHT22;37940;53.002;6.930;2023-02-14T15:41:22;9.80;99.90
51914;DHT22;37940;53.002;6.930;2023-02-14T15:43:53;9.80;99.90
51914;DHT22;37940;53.002;6.930;2023-02-14T15:48:49;9.70;99.90
51914;DHT22;37940;53.002;6.930;2023-02-14T15:51:21;9.60;99.90
51914;DHT22;37940;53.002;6.930;2023-02-14T15:53:59;9.60;99.90
51914;DHT22;37940;53.002;6.930;2023-02-14T15:56:29;9.50;99.90
51914;DHT22;37940;53.002;6.930;2023-02-14T15:59:00;9.50;99.90
51914;DHT22;37940;53.002;6.930;2023-02-14T16:01:27;9.40;99.90
51914;DHT22;37940;53.002;6.930;2023-02-14T16:03:56;9.30;99.90
51914;DHT22;37940;53.002;6.930;2023-02-14T16:06:37;9.30;99.90
51914;DHT22;37940;53.002;6.930;2023-02-14T16:09:26;9.20;99.90
51914;DHT22;37940;53.002;6.930;2023-02-14T16:11:52;9.10;99.90
51914;DHT22;37940;53.002;6.930;2023-02-14T16:14:33;9.10;99.90
51914;DHT22;37940;53.002;6.930;2023-02-14T16:17:10;9.00;99.90
51914;DHT22;37940;53.002;6.930;2023-02-14T16:19:42;8.90;99.90
51914;DHT22;37940;53.002;6.930;2023-02-14T16:22:11;8.80;99.90
51914;DHT22;37940;53.002;6.930;2023-02-14T16:24:38;8.70;99.90
51914;DHT22;37940;53.002;6.930;2023-02-14T16:27:04;8.60;99.90
51914;DHT22;37940;53.002;6.930;2023-02-14T16:29:34;8.50;99.90
51914;DHT22;37940;53.002;6.930;2023-02-14T16:32:12;8.40;99.90
51914;DHT22;37940;53.002;6.930;2023-02-14T16:34:41;8.30;99.90
51914;DHT22;37940;53.002;6.930;2023-02-14T16:37:24;8.20;99.90
51914;DHT22;37940;53.002;6.930;2023-02-14T16:39:52;8.10;99.90
51914;DHT22;37940;53.002;6.930;2023-02-14T16:42:19;7.90;99.90
51914;DHT22;37940;53.002;6.930;2023-02-14T16:44:46;7.80;99.90
51914;DHT22;37940;53.002;6.930;2023-02-14T16:47:13;7.70;99.90
51914;DHT22;37940;53.002;6.930;2023-02-14T16:49:40;7.60;99.90
51914;DHT22;37940;53.002;6.930;2023-02-14T16:52:12;7.40;99.90
51914;DHT22;37940;53.002;6.930;2023-02-14T16:54:39;7.30;99.90
51914;DHT22;37940;53.002;6.930;2023-02-14T16:57:05;7.20;99.90
51914;DHT22;37940;53.002;6.930;2023-02-14T16:59:31;7.10;99.90
51914;DHT22;37940;53.002;6.930;2023-02-14T17:01:57;7.00;99.90
51914;DHT22;37940;53.002;6.930;2023-02-14T17:04:23;6.90;99.90
51914;DHT22;37940;53.002;6.930;2023-02-14T17:06:53;6.80;99.90
51914;DHT22;37940;53.002;6.930;2023-02-14T17:09:22;6.80;99.90
51914;DHT22;37940;53.002;6.930;2023-02-14T17:11:54;6.70;99.90
51914;DHT22;37940;53.002;6.930;2023-02-14T17:14:26;6.60;99.90
51914;DHT22;37940;53.002;6.930;2023-02-14T17:16:54;6.50;99.90
51914;DHT22;37940;53.002;6.930;2023-02-14T17:19:20;6.40;99.90
51914;DHT22;37940;53.002;6.930;2023-02-14T17:21:48;6.40;99.90
51914;DHT22;37940;53.002;6.930;2023-02-14T17:24:14;6.30;99.90
51914;DHT22;37940;53.002;6.930;2023-02-14T17:26:40;6.30;99.90
51914;DHT22;37940;53.002;6.930;2023-02-14T17:29:06;6.20;99.90
51914;DHT22;37940;53.002;6.930;2023-02-14T17:31:33;6.20;99.90
51914;DHT22;37940;53.002;6.930;2023-02-14T17:33:58;6.10;99.90
51914;DHT22;37940;53.002;6.930;2023-02-14T17:36:24;6.10;99.90
51914;DHT22;37940;53.002;6.930;2023-02-14T17:38:54;6.00;99.90
51914;DHT22;37940;53.002;6.930;2023-02-14T17:41:24;5.90;99.90
51914;DHT22;37940;53.002;6.930;2023-02-14T17:43:51;5.90;99.90
51914;DHT22;37940;53.002;6.930;2023-02-14T17:46:20;5.80;99.90
51914;DHT22;37940;53.002;6.930;2023-02-14T17:48:47;5.70;99.90
51914;DHT22;37940;53.002;6.930;2023-02-14T17:51:14;5.70;99.90
51914;DHT22;37940;53.002;6.930;2023-02-14T17:53:41;5.60;99.90
51914;DHT22;37940;53.002;6.930;2023-02-14T17:56:14;5.50;99.90
51914;DHT22;37940;53.002;6.930;2023-02-14T17:58:42;5.50;99.90
51914;DHT22;37940;53.002;6.930;2023-02-14T18:01:10;5.40;99.90
51914;DHT22;37940;53.002;6.930;2023-02-14T18:03:37;5.40;99.90
51914;DHT22;37940;53.002;6.930;2023-02-14T18:06:04;5.30;99.90
51914;DHT22;37940;53.002;6.930;2023-02-14T18:08:33;5.30;99.90
51914;DHT22;37940;53.002;6.930;2023-02-14T18:10:59;5.30;99.90
51914;DHT22;37940;53.002;6.930;2023-02-14T18:13:25;5.20;99.90
51914;DHT22;37940;53.002;6.930;2023-02-14T18:15:51;5.10;99.90
51914;DHT22;37940;53.002;6.930;2023-02-14T18:18:18;5.10;99.90
51914;DHT22;37940;53.002;6.930;2023-02-14T18:20:54;5.00;99.90
51914;DHT22;37940;53.002;6.930;2023-02-14T18:23:21;4.90;99.90
51914;DHT22;37940;53.002;6.930;2023-02-14T18:25:55;4.90;99.90
51914;DHT22;37940;53.002;6.930;2023-02-14T18:28:21;4.90;99.90
51914;DHT22;37940;53.002;6.930;2023-02-14T18:30:47;4.80;99.90